Latest Weather Observations for Kyabram

IDV60801

Issued at 10:35 pm EDT Thursday 27 November 2014 (issued every 30 minutes, with the page automatically refreshed every 10 minutes)

About weather observations | Map of weather stations | Latest weather observations for VIC | Other Formats
Station Details ID: 080091 Name: KYABRAM Lat: -36.34 Lon: 145.06 Height: 105.0 m
Data from the previous 72 hours. | See also: Recent months at Kyabram
Date/Time
EDT
Temp
°C
App
Temp
°C
Dew
Point
Rel
Hum
%
Delta-T
°C
Wind Press
QNH
hPa
Press
MSL
hPa
Rain
since 9 am
mm
Dir
 
Spd
km/h
Gust
km/h
Spd
kts
Gust
kts
27/10:30pm 14.5 12.1 8.7 68 2.9 S 11 15 6 8 - - 0.0
27/10:00pm 15.2 12.4 8.4 64 3.5 S 13 19 7 10 - - 0.0
27/09:30pm 16.2 12.9 8.2 59 4.1 SSW 15 24 8 13 - - 0.0
27/09:00pm 17.3 14.0 8.2 55 4.7 S 15 22 8 12 - - 0.0
27/08:30pm 18.4 15.1 8.1 51 5.3 SSW 15 20 8 11 - - 0.0
27/08:00pm 20.0 16.2 7.7 45 6.4 S 17 24 9 13 - - 0.0
27/07:30pm 21.8 18.0 7.6 40 7.4 S 17 30 9 16 - - 0.0
27/07:00pm 23.4 19.0 6.7 34 8.6 S 19 35 10 19 - - 0.0
27/06:30pm 24.6 20.1 5.9 30 9.6 S 19 30 10 16 - - 0.0
27/06:00pm 25.7 20.9 4.8 26 10.6 S 19 26 10 14 - - 0.0
27/05:30pm 26.5 21.9 3.7 23 11.4 S 17 26 9 14 - - 0.0
27/05:00pm 26.7 22.0 3.2 22 11.7 S 17 26 9 14 - - 0.0
27/04:30pm 26.4 21.2 2.3 21 11.7 S 19 28 10 15 - - 0.0
27/04:00pm 26.6 21.7 1.8 20 12.0 S 17 26 9 14 - - 0.0
27/03:30pm 26.3 21.5 0.1 18 12.3 S 15 24 8 13 - - 0.0
27/03:00pm 27.1 22.3 0.0 17 12.7 S 15 24 8 13 - - 0.0
27/02:30pm 27.0 22.2 -0.1 17 12.7 S 15 26 8 14 - - 0.0
27/02:00pm 25.8 21.1 1.2 20 11.7 S 15 24 8 13 - - 0.0
27/01:30pm 25.0 21.1 3.6 25 10.6 SSE 13 24 7 13 - - 0.0
27/01:00pm 24.5 20.0 4.3 27 10.1 SSW 17 30 9 16 - - 0.0
27/12:30pm 22.8 18.4 2.8 27 9.6 S 15 24 8 13 - - 0.0
27/12:00pm 22.7 18.8 5.2 32 8.8 S 15 26 8 14 - - 0.0
27/11:30am 21.5 18.0 5.4 35 8.0 SSE 13 22 7 12 - - 0.0
27/11:00am 20.5 17.0 5.3 37 7.5 SSE 13 19 7 10 - - 0.0
27/10:30am 19.8 15.6 5.5 39 7.1 S 17 30 9 16 - - 0.0
27/10:00am 18.8 14.6 5.6 42 6.5 S 17 28 9 15 - - 0.0
27/09:30am 17.9 14.3 6.7 48 5.6 S 15 24 8 13 - - 0.0
27/09:00am 15.7 11.5 5.6 51 4.9 S 17 24 9 13 - - 0.0
27/08:30am 14.7 9.9 5.8 55 4.3 S 20 32 11 17 - - 0.0
27/08:00am 13.5 8.9 6.6 63 3.3 S 20 35 11 19 - - 0.0
27/07:30am 12.6 8.7 6.9 68 2.8 S 17 26 9 14 - - 0.0
27/07:00am 11.4 8.2 6.7 73 2.2 S 13 20 7 11 - - 0.0
27/06:30am 9.8 6.5 6.3 79 1.6 S 13 20 7 11 - - 0.0
27/06:00am 9.4 6.0 6.1 80 1.5 S 13 17 7 9 - - 0.0
27/05:30am 9.7 6.0 6.2 79 1.6 S 15 24 8 13 - - 0.0
27/05:00am 9.8 6.6 6.7 81 1.5 S 13 20 7 11 - - 0.0
27/04:30am 9.7 6.8 6.6 81 1.5 S 11 17 6 9 - - 0.0
27/04:00am 10.5 7.7 6.8 78 1.8 S 11 15 6 8 - - 0.0
27/03:30am 10.4 7.7 7.5 82 1.4 S 11 20 6 11 - - 0.0
27/03:00am 10.6 8.4 7.8 83 1.4 S 9 17 5 9 - - 0.0
27/02:30am 11.0 9.0 8.8 86 1.1 S 9 17 5 9 - - 0.0
27/02:00am 11.3 9.4 9.2 87 1.1 S 9 17 5 9 - - 0.0
27/01:30am 11.0 9.6 9.4 90 0.8 S 7 11 4 6 - - 0.0
27/01:00am 11.8 9.7 9.9 88 1.0 S 11 15 6 8 - - 0.0
27/12:30am 12.5 10.8 10.0 85 1.3 S 9 15 5 8 - - 0.0
27/12:00am 13.3 10.6 10.5 83 1.5 S 15 28 8 15 - - 0.0
 
Date/Time
EDT
Temp
°C
App
Temp
°C
Dew
Point
Rel
Hum
%
Delta-T
°C
Wind Press
QNH
hPa
Press
MSL
hPa
Rain
since 9 am
mm
Dir
 
Spd
km/h
Gust
km/h
Spd
kts
Gust
kts
26/11:30pm 13.6 11.3 10.6 82 1.6 S 13 22 7 12 - - 0.0
26/11:00pm 13.9 11.7 10.9 82 1.6 S 13 24 7 13 - - 0.0
26/10:30pm 14.5 12.3 10.9 79 1.9 S 13 20 7 11 - - 0.0
26/10:00pm 15.8 13.7 11.0 73 2.6 S 13 22 7 12 - - 0.0
26/09:30pm 16.6 14.3 10.5 67 3.3 S 13 24 7 13 - - 0.0
26/09:00pm 17.5 14.2 9.7 60 4.1 S 17 26 9 14 - - 0.0
26/08:30pm 18.3 15.3 9.4 56 4.7 SSE 15 22 8 12 - - 0.0
26/08:00pm 19.4 16.5 9.6 53 5.2 S 15 32 8 17 - - 0.0
26/07:30pm 20.7 17.4 9.6 49 6.0 S 17 28 9 15 - - 0.0
26/07:00pm 21.9 18.2 9.4 45 6.7 S 19 30 10 16 - - 0.0
26/06:30pm 22.8 19.1 9.6 43 7.2 S 19 28 10 15 - - 0.0
26/06:00pm 23.6 19.8 9.2 40 7.8 SSE 19 32 10 17 - - 0.0
26/05:30pm 23.3 19.8 8.6 39 7.9 SSE 17 30 9 16 - - 0.0
26/05:00pm 24.3 21.2 7.4 34 8.9 S 13 26 7 14 - - 0.0
26/04:30pm 25.2 21.0 7.3 32 9.5 S 19 24 10 13 - - 0.0
26/04:00pm 25.8 22.9 8.3 33 9.5 SW 13 20 7 11 - - 0.0
26/03:30pm 24.8 21.0 7.4 33 9.2 SSW 17 30 9 16 - - 0.0
26/03:00pm 23.9 20.8 7.1 34 8.8 SSW 13 24 7 13 - - 0.0
26/02:30pm 24.5 20.9 6.7 32 9.3 S 15 26 8 14 - - 0.0
26/02:00pm 24.0 20.8 6.7 33 9.0 SSW 13 20 7 11 - - 0.0
26/01:30pm 23.5 20.5 7.6 36 8.4 S 13 24 7 13 - - 0.0
26/01:00pm 22.9 19.7 7.0 36 8.2 SW 13 20 7 11 - - 0.0
26/12:30pm 21.1 17.8 6.6 39 7.4 SW 13 20 7 11 - - 0.0
26/12:00pm 21.7 18.7 7.5 40 7.4 SW 13 20 7 11 - - 0.0
26/11:30am 20.8 18.0 7.1 41 7.0 S 11 19 6 10 - - 0.0
26/11:00am 20.3 17.6 7.3 43 6.7 SSW 11 22 6 12 - - 0.0
26/10:30am 19.7 16.5 6.8 43 6.5 S 13 17 7 9 - - 0.0
26/10:00am 18.6 15.8 6.8 46 5.9 SSW 11 17 6 9 - - 0.0
26/09:30am 18.0 15.2 7.1 49 5.5 S 11 19 6 10 - - 0.0
26/09:00am 17.0 14.2 6.8 51 5.1 S 11 19 6 10 - - 0.2
26/08:30am 16.2 13.2 7.7 57 4.3 S 13 20 7 11 - - 0.2
26/08:00am 14.2 12.1 8.4 68 2.9 S 9 15 5 8 - - 0.2
26/07:30am 12.5 11.0 9.0 79 1.8 SSW 7 11 4 6 - - 0.2
26/07:00am 10.2 8.6 8.0 86 1.1 SW 6 7 3 4 - - 0.2
26/06:30am 9.4 9.0 8.3 93 0.5 CALM 0 0 0 0 - - 0.2
26/06:00am 9.6 8.0 8.2 91 0.7 SSW 6 7 3 4 - - 0.2
26/05:30am 10.0 8.5 8.4 90 0.8 SSW 6 7 3 4 - - 0.2
26/05:00am 10.5 8.9 8.8 89 0.8 S 7 9 4 5 - - 0.2
26/04:30am 10.5 8.9 8.9 90 0.8 S 7 9 4 5 - - 0.2
26/04:00am 10.6 9.0 8.9 89 0.8 S 7 11 4 6 - - 0.2
26/03:30am 10.3 8.6 8.4 88 0.9 S 7 9 4 5 - - 0.2
26/03:00am 11.2 9.5 8.4 83 1.4 SSW 7 9 4 5 - - 0.2
26/02:30am 12.1 10.1 8.6 79 1.7 S 9 13 5 7 - - 0.2
26/02:00am 12.6 10.6 8.7 77 2.0 S 9 17 5 9 - - 0.2
26/01:30am 13.2 10.9 8.9 75 2.2 S 11 17 6 9 - - 0.2
26/01:00am 13.3 11.3 8.6 73 2.4 S 9 17 5 9 - - 0.2
26/12:30am 12.7 11.0 8.2 74 2.2 S 7 11 4 6 - - 0.2
26/12:00am 13.4 11.6 8.0 70 2.7 S 7 11 4 6 - - 0.2
 
Date/Time
EDT
Temp
°C
App
Temp
°C
Dew
Point
Rel
Hum
%
Delta-T
°C
Wind Press
QNH
hPa
Press
MSL
hPa
Rain
since 9 am
mm
Dir
 
Spd
km/h
Gust
km/h
Spd
kts
Gust
kts
25/11:30pm 13.7 11.6 8.1 69 2.8 S 9 15 5 8 - - 0.2
25/11:00pm 13.0 12.7 8.5 74 2.3 CALM 0 0 0 0 - - 0.2
25/10:30pm 13.2 13.0 8.9 75 2.2 CALM 0 0 0 0 - - 0.2
25/10:00pm 14.1 13.8 8.5 69 2.8 CALM 0 0 0 0 - - 0.2
25/09:30pm 15.1 14.7 8.3 64 3.4 CALM 0 0 0 0 - - 0.2
25/09:00pm 16.5 16.1 8.2 58 4.2 CALM 0 0 0 0 - - 0.2
25/08:30pm 17.7 17.0 6.9 49 5.4 CALM 0 0 0 0 - - 0.2
25/08:00pm 19.7 18.7 5.4 39 7.0 CALM 0 0 0 0 - - 0.2
25/07:30pm 22.3 20.3 4.4 31 8.8 SW 4 9 2 5 - - 0.2
25/07:00pm 22.8 20.3 4.8 31 9.0 SSW 7 13 4 7 - - 0.2
25/06:30pm 23.0 20.0 4.0 29 9.3 SW 9 15 5 8 - - 0.2
25/06:00pm 23.4 20.1 4.4 29 9.4 SW 11 17 6 9 - - 0.2
25/05:30pm 23.0 19.6 4.0 29 9.3 W 11 19 6 10 - - 0.2
25/05:00pm 23.6 20.3 4.5 29 9.5 SW 11 24 6 13 - - 0.2
25/04:30pm 24.3 21.5 5.1 29 9.7 SW 9 20 5 11 - - 0.2
25/04:00pm 22.6 19.2 6.0 34 8.4 SW 13 24 7 13 - - 0.2
25/03:30pm 24.4 21.0 5.7 30 9.6 SW 13 20 7 11 - - 0.2
25/03:00pm 23.6 20.2 6.0 32 9.0 WSW 13 26 7 14 - - 0.2
25/02:30pm 22.2 18.4 3.8 30 8.9 SW 13 20 7 11 - - 0.2
25/02:00pm 22.4 18.9 5.4 33 8.5 SW 13 19 7 10 - - 0.2
25/01:30pm 22.7 19.9 6.9 36 8.2 S 11 19 6 10 - - 0.2
25/01:00pm 20.3 17.3 5.9 39 7.2 S 11 22 6 12 - - 0.2
25/12:30pm 19.5 15.8 6.3 42 6.6 SSW 15 28 8 15 - - 0.2
25/12:00pm 20.2 16.9 6.5 41 6.9 SSW 13 22 7 12 - - 0.2
25/11:30am 18.9 15.9 7.7 48 5.7 SSW 13 24 7 13 - - 0.2
25/11:00am 17.9 14.7 8.5 54 4.9 SW 15 26 8 14 - - 0.2
25/10:30am 17.2 13.4 7.5 53 4.9 SSW 17 30 9 16 - - 0.0
25/10:00am 17.4 14.7 8.8 57 4.5 SW 13 24 7 13 - - 0.0
25/09:30am 15.6 11.9 7.9 60 3.9 SSW 17 28 9 15 - - 0.0
25/09:00am 14.9 11.2 7.9 63 3.5 SW 17 28 9 15 - - 6.8
25/08:30am 14.3 11.5 8.5 68 2.9 WSW 13 24 7 13 - - 6.8
25/08:00am 12.6 10.6 8.5 76 2.0 SW 9 17 5 9 - - 6.8
25/07:30am 10.9 9.1 8.0 82 1.4 W 7 11 4 6 - - 6.8
25/07:00am 9.8 8.2 8.2 90 0.8 WNW 6 9 3 5 - - 6.8
25/06:30am 7.8 7.0 6.7 93 0.5 CALM 0 0 0 0 - - 6.8
25/06:00am 7.6 6.7 6.2 91 0.6 CALM 0 0 0 0 - - 6.8
25/05:30am 7.9 7.1 6.5 91 0.6 CALM 0 0 0 0 - - 6.8
25/05:00am 8.0 7.2 6.6 91 0.6 CALM 0 0 0 0 - - 6.8
25/04:30am 7.8 7.0 6.6 92 0.6 CALM 0 0 0 0 - - 6.8
25/04:00am 8.6 7.4 6.6 87 0.9 SW 2 7 1 4 - - 6.8
25/03:30am 9.3 7.6 7.4 88 0.9 SW 6 9 3 5 - - 6.8
25/03:00am 9.6 8.3 7.7 88 0.9 WSW 4 7 2 4 - - 6.8
25/02:30am 10.3 8.7 8.6 89 0.8 SW 7 11 4 6 - - 6.8
25/02:00am 9.5 9.0 7.9 90 0.8 CALM 0 0 0 0 - - 6.8
25/01:30am 10.3 8.7 8.2 87 1.0 SSW 6 9 3 5 - - 6.8
25/01:00am 11.3 9.8 9.0 86 1.2 SW 7 13 4 7 - - 6.8
25/12:30am 11.8 10.5 9.2 84 1.3 SW 6 11 3 6 - - 6.8
25/12:00am 12.3 10.8 9.1 81 1.6 SW 7 11 4 6 - - 6.8
 
Date/Time
EDT
Temp
°C
App
Temp
°C
Dew
Point
Rel
Hum
%
Delta-T
°C
Wind Press
QNH
hPa
Press
MSL
hPa
Rain
since 9 am
mm
Dir
 
Spd
km/h
Gust
km/h
Spd
kts
Gust
kts
24/11:30pm 13.2 10.6 9.5 78 1.9 SSW 13 20 7 11 - - 6.8
24/11:00pm 13.9 11.3 9.3 74 2.4 SSW 13 20 7 11 - - 6.8

Other Formats:

Comma delimited format used in spreadsheet applications
http://www.bom.gov.au/fwo/IDV60801/IDV60801.95833.axf

JavaScript Object Notation format (JSON) in row-major order
http://www.bom.gov.au/fwo/IDV60801/IDV60801.95833.json